createdAt,value
2022-11-19T00:00:41.399Z,995.25
2022-11-19T00:01:41.458Z,995.25
2022-11-19T00:02:41.378Z,995.27
2022-11-19T00:03:41.366Z,995.27
2022-11-19T00:04:41.356Z,995.28
2022-11-19T00:05:41.345Z,995.29
2022-11-19T00:06:41.465Z,995.27
2022-11-19T00:07:41.376Z,995.31
2022-11-19T00:08:41.313Z,995.27
2022-11-19T00:09:41.302Z,995.30
2022-11-19T00:10:41.292Z,995.29
2022-11-19T00:11:41.284Z,995.27
2022-11-19T00:12:41.267Z,995.32
2022-11-19T00:13:41.266Z,995.30
2022-11-19T00:14:41.250Z,995.31
2022-11-19T00:15:41.238Z,995.30
2022-11-19T00:16:41.229Z,995.37
2022-11-19T00:17:41.216Z,995.29
2022-11-19T00:18:41.212Z,995.36
2022-11-19T00:19:41.193Z,995.31
2022-11-19T00:20:41.187Z,995.34
2022-11-19T00:21:41.175Z,995.31
2022-11-19T00:22:41.165Z,995.33
2022-11-19T00:23:41.160Z,995.34
2022-11-19T00:24:41.151Z,995.37
2022-11-19T00:25:41.129Z,995.31
2022-11-19T00:26:41.124Z,995.33
2022-11-19T00:27:41.113Z,995.30
2022-11-19T00:28:41.100Z,995.31
2022-11-19T00:29:41.090Z,995.33
2022-11-19T00:30:48.023Z,995.34
2022-11-19T00:31:41.065Z,995.31
2022-11-19T00:32:41.058Z,995.29
2022-11-19T00:33:41.045Z,995.30
2022-11-19T00:34:41.035Z,995.38
2022-11-19T00:35:41.024Z,995.35
2022-11-19T00:36:41.016Z,995.35
2022-11-19T00:37:41.004Z,995.32
2022-11-19T00:38:41.098Z,995.33
2022-11-19T00:39:40.982Z,995.35
2022-11-19T00:40:40.976Z,995.35
2022-11-19T00:41:40.961Z,995.36
2022-11-19T00:42:40.952Z,995.37
2022-11-19T00:43:40.940Z,995.37
2022-11-19T00:44:40.928Z,995.35
2022-11-19T00:45:40.916Z,995.37
2022-11-19T00:46:40.909Z,995.36
2022-11-19T00:47:40.897Z,995.38
2022-11-19T00:48:40.887Z,995.37
2022-11-19T00:49:40.877Z,995.38
2022-11-19T00:50:40.864Z,995.41
2022-11-19T00:51:40.854Z,995.36
2022-11-19T00:52:40.845Z,995.38
2022-11-19T00:53:40.836Z,995.38
2022-11-19T00:54:40.823Z,995.38
2022-11-19T00:55:40.811Z,995.41
2022-11-19T00:56:40.808Z,995.40
2022-11-19T00:57:40.788Z,995.36
2022-11-19T00:58:40.780Z,995.35
2022-11-19T00:59:40.770Z,995.41
2022-11-19T01:00:40.760Z,995.40
2022-11-19T01:01:40.779Z,995.42
2022-11-19T01:02:40.738Z,995.42
2022-11-19T01:03:40.722Z,995.40
2022-11-19T01:04:40.715Z,995.43
2022-11-19T01:05:40.717Z,995.47
2022-11-19T01:06:40.698Z,995.44
2022-11-19T01:07:40.686Z,995.44
2022-11-19T01:08:40.676Z,995.45
2022-11-19T01:09:40.662Z,995.44
2022-11-19T01:10:40.653Z,995.43
2022-11-19T01:11:40.643Z,995.43
2022-11-19T01:12:40.630Z,995.46
2022-11-19T01:13:40.617Z,995.49
2022-11-19T01:14:40.608Z,995.48
2022-11-19T01:15:40.599Z,995.51
2022-11-19T01:16:40.585Z,995.52
2022-11-19T01:17:40.575Z,995.55
2022-11-19T01:18:40.565Z,995.57
2022-11-19T01:19:40.556Z,995.58
2022-11-19T01:20:40.595Z,995.59
2022-11-19T01:21:40.533Z,995.61
2022-11-19T01:22:40.521Z,995.61
2022-11-19T01:23:40.511Z,995.63
2022-11-19T01:24:40.499Z,995.56
2022-11-19T01:25:40.489Z,995.59
2022-11-19T01:26:45.322Z,995.62
2022-11-19T01:27:40.466Z,995.64
2022-11-19T01:28:40.458Z,995.63
2022-11-19T01:29:40.442Z,995.68
2022-11-19T01:30:40.436Z,995.65
2022-11-19T01:31:40.424Z,995.62
2022-11-19T01:32:40.414Z,995.59
2022-11-19T01:33:40.403Z,995.61
2022-11-19T01:34:40.393Z,995.63
2022-11-19T01:35:40.385Z,995.66
2022-11-19T01:36:40.371Z,995.64
2022-11-19T01:37:40.361Z,995.70
2022-11-19T01:38:40.352Z,995.66
2022-11-19T01:39:40.335Z,995.70
2022-11-19T01:40:40.324Z,995.69
2022-11-19T01:41:40.323Z,995.67
2022-11-19T01:42:40.299Z,995.62
2022-11-19T01:43:40.291Z,995.67
2022-11-19T01:44:40.280Z,995.68
2022-11-19T01:45:40.267Z,995.68
2022-11-19T01:46:40.259Z,995.70
2022-11-19T01:47:40.246Z,995.69
2022-11-19T01:48:40.237Z,995.72
2022-11-19T01:49:40.220Z,995.78
2022-11-19T01:50:40.212Z,995.74
2022-11-19T01:51:40.204Z,995.74
2022-11-19T01:52:40.191Z,995.73
2022-11-19T01:53:40.178Z,995.78
2022-11-19T01:54:40.169Z,995.78
2022-11-19T01:55:40.155Z,995.79
2022-11-19T01:56:40.146Z,995.83
2022-11-19T01:57:40.132Z,995.81
2022-11-19T01:58:40.138Z,995.84
2022-11-19T01:59:40.100Z,995.81
2022-11-19T02:00:40.104Z,995.85
2022-11-19T02:01:40.150Z,995.83
2022-11-19T02:02:40.079Z,995.81
2022-11-19T02:03:40.068Z,995.79
2022-11-19T02:04:40.061Z,995.82
2022-11-19T02:05:40.040Z,995.82
2022-11-19T02:06:40.033Z,995.83
2022-11-19T02:07:40.049Z,995.83
2022-11-19T02:08:40.011Z,995.87
2022-11-19T02:09:39.996Z,995.91
2022-11-19T02:10:39.991Z,995.88
2022-11-19T02:11:39.987Z,995.88
2022-11-19T02:12:39.971Z,995.88
2022-11-19T02:13:39.954Z,995.89
2022-11-19T02:14:39.943Z,995.91
2022-11-19T02:15:39.932Z,995.87
2022-11-19T02:16:39.929Z,995.89
2022-11-19T02:17:39.910Z,995.87
2022-11-19T02:18:39.906Z,995.91
2022-11-19T02:19:39.885Z,995.93
2022-11-19T02:20:39.878Z,995.94
2022-11-19T02:21:39.865Z,995.95
2022-11-19T02:22:39.855Z,995.92
2022-11-19T02:23:45.699Z,995.93
2022-11-19T02:24:39.838Z,995.93
2022-11-19T02:25:39.828Z,995.98
2022-11-19T02:26:39.817Z,995.97
2022-11-19T02:27:39.797Z,995.96
2022-11-19T02:28:39.807Z,996.00
2022-11-19T02:29:39.770Z,996.03
2022-11-19T02:30:39.762Z,995.99
2022-11-19T02:31:39.758Z,995.97
2022-11-19T02:32:39.754Z,995.95
2022-11-19T02:33:39.734Z,995.94
2022-11-19T02:34:39.738Z,995.97
2022-11-19T02:35:39.703Z,995.96
2022-11-19T02:36:39.695Z,995.99
2022-11-19T02:37:39.686Z,995.97
2022-11-19T02:38:39.671Z,996.00
2022-11-19T02:39:39.663Z,995.95
2022-11-19T02:40:39.645Z,996.00
2022-11-19T02:41:39.638Z,995.97
2022-11-19T02:42:39.633Z,995.99
2022-11-19T02:43:39.619Z,995.98
2022-11-19T02:44:39.602Z,995.99
2022-11-19T02:45:39.593Z,995.97
2022-11-19T02:46:39.578Z,995.99
2022-11-19T02:47:39.572Z,996.00
2022-11-19T02:48:39.560Z,996.04
2022-11-19T02:49:39.548Z,996.01
2022-11-19T02:50:39.536Z,996.04
2022-11-19T02:51:39.525Z,996.03
2022-11-19T02:52:39.510Z,996.05
2022-11-19T02:53:39.502Z,996.06
2022-11-19T02:54:39.484Z,996.03
2022-11-19T02:55:39.478Z,996.07
2022-11-19T02:56:39.464Z,996.04
2022-11-19T02:57:39.455Z,996.03
2022-11-19T02:58:39.443Z,996.04
2022-11-19T02:59:39.433Z,996.07
2022-11-19T03:00:39.415Z,996.08
2022-11-19T03:01:39.451Z,996.10
2022-11-19T03:02:39.394Z,996.08
2022-11-19T03:03:39.384Z,996.14
2022-11-19T03:04:39.372Z,996.09
2022-11-19T03:05:39.361Z,996.15
2022-11-19T03:06:39.348Z,996.15
2022-11-19T03:07:39.383Z,996.16
2022-11-19T03:08:39.323Z,996.16
2022-11-19T03:09:39.314Z,996.20
2022-11-19T03:10:39.300Z,996.21
2022-11-19T03:11:39.290Z,996.26
2022-11-19T03:12:39.279Z,996.25
2022-11-19T03:13:39.267Z,996.18
2022-11-19T03:14:39.252Z,996.29
2022-11-19T03:15:39.241Z,996.29
2022-11-19T03:16:39.230Z,996.31
2022-11-19T03:17:39.780Z,996.32
2022-11-19T03:18:39.220Z,996.36
2022-11-19T03:19:39.195Z,996.40
2022-11-19T03:20:39.183Z,996.38
2022-11-19T03:21:39.171Z,996.44
2022-11-19T03:22:39.780Z,996.44
2022-11-19T03:23:39.139Z,996.49
2022-11-19T03:24:39.132Z,996.52
2022-11-19T03:25:39.120Z,996.56
2022-11-19T03:26:39.110Z,996.61
2022-11-19T03:27:39.100Z,996.65
2022-11-19T03:28:39.093Z,996.65
2022-11-19T03:29:39.074Z,996.67
2022-11-19T03:30:39.106Z,996.64
2022-11-19T03:31:39.047Z,996.64
2022-11-19T03:32:39.039Z,996.65
2022-11-19T03:33:39.026Z,996.62
2022-11-19T03:34:39.016Z,996.61
2022-11-19T03:35:39.003Z,996.62
2022-11-19T03:36:38.996Z,996.61
2022-11-19T03:37:38.975Z,996.61
2022-11-19T03:38:38.969Z,996.64
2022-11-19T03:39:38.955Z,996.65
2022-11-19T03:40:38.944Z,996.67
2022-11-19T03:41:38.931Z,996.69
2022-11-19T03:42:38.920Z,996.71
2022-11-19T03:43:38.907Z,996.70
2022-11-19T03:44:38.897Z,996.66
2022-11-19T03:45:38.882Z,996.67
2022-11-19T03:46:38.872Z,996.60
2022-11-19T03:47:38.859Z,996.61
2022-11-19T03:48:38.849Z,996.57
2022-11-19T03:49:38.840Z,996.62
2022-11-19T03:50:38.823Z,996.59
2022-11-19T03:51:38.812Z,996.59
2022-11-19T03:52:38.801Z,996.56
2022-11-19T03:53:38.788Z,996.56
2022-11-19T03:54:38.777Z,996.54
2022-11-19T03:55:38.765Z,996.59
2022-11-19T03:56:38.754Z,996.49
2022-11-19T03:57:38.741Z,996.53
2022-11-19T03:58:38.729Z,996.54
2022-11-19T03:59:38.715Z,996.57
2022-11-19T04:00:38.707Z,996.55
2022-11-19T04:01:38.717Z,996.58
2022-11-19T04:02:38.689Z,996.51
2022-11-19T04:03:38.666Z,996.53
2022-11-19T04:04:38.654Z,996.48
2022-11-19T04:05:38.644Z,996.53
2022-11-19T04:06:38.630Z,996.53
2022-11-19T04:07:38.669Z,996.52
2022-11-19T04:08:38.607Z,996.53
2022-11-19T04:09:38.592Z,996.58
2022-11-19T04:10:38.584Z,996.57
2022-11-19T04:11:38.568Z,996.60
2022-11-19T04:12:38.559Z,996.56
2022-11-19T04:13:38.546Z,996.64
2022-11-19T04:14:38.539Z,996.63
2022-11-19T04:15:38.520Z,996.62
2022-11-19T04:16:38.512Z,996.66
2022-11-19T04:17:38.497Z,996.66
2022-11-19T04:18:38.490Z,996.67
2022-11-19T04:19:38.476Z,996.63
2022-11-19T04:20:38.463Z,996.69
2022-11-19T04:21:38.452Z,996.72
2022-11-19T04:22:38.438Z,996.73
2022-11-19T04:23:38.421Z,996.70
2022-11-19T04:24:38.440Z,996.68
2022-11-19T04:25:38.399Z,996.67
2022-11-19T04:26:38.388Z,996.69
2022-11-19T04:27:38.381Z,996.65
2022-11-19T04:28:38.361Z,996.65
2022-11-19T04:29:38.359Z,996.64
2022-11-19T04:30:38.330Z,996.64
2022-11-19T04:31:38.325Z,996.62
2022-11-19T04:32:38.311Z,996.64
2022-11-19T04:33:38.298Z,996.62
2022-11-19T04:34:38.288Z,996.62
2022-11-19T04:35:38.273Z,996.63
2022-11-19T04:36:38.264Z,996.62
2022-11-19T04:37:38.249Z,996.64
2022-11-19T04:38:38.262Z,996.66
2022-11-19T04:39:38.224Z,996.65
2022-11-19T04:40:38.215Z,996.67
2022-11-19T04:41:38.200Z,996.66
2022-11-19T04:42:38.190Z,996.70
2022-11-19T04:43:38.171Z,996.68
2022-11-19T04:44:38.173Z,996.72
2022-11-19T04:45:38.153Z,996.74
2022-11-19T04:46:38.144Z,996.72
2022-11-19T04:47:38.125Z,996.68
2022-11-19T04:48:38.117Z,996.71
2022-11-19T04:49:38.098Z,996.75
2022-11-19T04:50:38.092Z,996.73
2022-11-19T04:51:38.080Z,996.69
2022-11-19T04:52:41.178Z,996.69
2022-11-19T04:53:38.052Z,996.71
2022-11-19T04:54:38.039Z,996.71
2022-11-19T04:55:38.025Z,996.69
2022-11-19T04:56:38.025Z,996.69
2022-11-19T04:57:38.000Z,996.72
2022-11-19T04:58:37.988Z,996.72
2022-11-19T04:59:37.978Z,996.72
2022-11-19T05:00:37.964Z,996.70
2022-11-19T05:01:38.044Z,996.68
2022-11-19T05:02:37.943Z,996.66
2022-11-19T05:03:37.930Z,996.65
2022-11-19T05:04:37.917Z,996.66
2022-11-19T05:05:37.904Z,996.69
2022-11-19T05:06:37.892Z,996.61
2022-11-19T05:07:38.007Z,996.61
2022-11-19T05:08:37.880Z,996.63
2022-11-19T05:09:37.852Z,996.70
2022-11-19T05:10:37.841Z,996.70
2022-11-19T05:11:37.834Z,996.73
2022-11-19T05:12:37.816Z,996.71
2022-11-19T05:13:37.804Z,996.71
2022-11-19T05:14:37.789Z,996.75
2022-11-19T05:15:37.778Z,996.69
2022-11-19T05:16:37.772Z,996.73
2022-11-19T05:17:37.754Z,996.67
2022-11-19T05:18:37.741Z,996.71
2022-11-19T05:19:37.727Z,996.73
2022-11-19T05:20:37.717Z,996.72
2022-11-19T05:21:37.704Z,996.73
2022-11-19T05:22:37.691Z,996.68
2022-11-19T05:23:37.678Z,996.72
2022-11-19T05:24:37.673Z,996.71
2022-11-19T05:25:37.663Z,996.72
2022-11-19T05:26:37.642Z,996.72
2022-11-19T05:27:37.631Z,996.73
2022-11-19T05:28:39.494Z,996.75
2022-11-19T05:29:37.602Z,996.75
2022-11-19T05:30:37.592Z,996.72
2022-11-19T05:31:37.603Z,996.71
2022-11-19T05:32:37.567Z,996.69
2022-11-19T05:33:37.557Z,996.70
2022-11-19T05:34:37.545Z,996.70
2022-11-19T05:35:37.529Z,996.73
2022-11-19T05:36:37.520Z,996.73
2022-11-19T05:38:37.534Z,996.78
2022-11-19T05:39:37.477Z,996.76
2022-11-19T05:40:37.469Z,996.79
2022-11-19T05:41:37.455Z,996.83
2022-11-19T05:43:37.517Z,996.90
2022-11-19T05:44:58.457Z,996.92
2022-11-19T05:45:37.433Z,996.93
2022-11-19T05:46:37.457Z,996.96
2022-11-19T05:47:37.411Z,997.01
2022-11-19T05:48:58.410Z,996.99
2022-11-19T05:49:58.390Z,997.02
2022-11-19T05:50:37.407Z,997.01
2022-11-19T05:51:37.360Z,997.06
2022-11-19T05:52:37.353Z,997.02
2022-11-19T05:53:58.387Z,997.06
2022-11-19T05:54:58.340Z,997.05
2022-11-19T05:55:37.312Z,997.09
2022-11-19T05:56:37.323Z,997.01
2022-11-19T05:57:37.282Z,997.09
2022-11-19T05:58:58.282Z,997.04
2022-11-19T05:59:58.268Z,997.08
2022-11-19T06:00:37.253Z,997.10
2022-11-19T06:01:37.240Z,997.05
2022-11-19T06:02:37.285Z,997.06
2022-11-19T06:03:58.213Z,997.08
2022-11-19T06:04:58.213Z,997.09
2022-11-19T06:05:40.287Z,997.14
2022-11-19T06:06:37.181Z,997.15
2022-11-19T06:07:37.196Z,997.15
2022-11-19T06:08:58.164Z,997.13
2022-11-19T06:09:58.146Z,997.20
2022-11-19T06:10:37.128Z,997.16
2022-11-19T06:11:37.113Z,997.12
2022-11-19T06:12:39.197Z,997.14
2022-11-19T06:13:58.092Z,997.17
2022-11-19T06:14:58.094Z,997.19
2022-11-19T06:15:37.063Z,997.16
2022-11-19T06:16:37.056Z,997.19
2022-11-19T06:17:37.034Z,997.18
2022-11-19T06:18:58.032Z,997.24
2022-11-19T06:19:58.010Z,997.28
2022-11-19T06:20:37.004Z,997.22
2022-11-19T06:21:36.987Z,997.18
2022-11-19T06:22:36.986Z,997.11
2022-11-19T06:23:57.965Z,997.17
2022-11-19T06:24:57.953Z,997.23
2022-11-19T06:25:36.935Z,997.21
2022-11-19T06:26:36.927Z,997.19
2022-11-19T06:27:36.924Z,997.29
2022-11-19T06:28:57.908Z,997.29
2022-11-19T06:29:57.892Z,997.25
2022-11-19T06:30:36.872Z,997.25
2022-11-19T06:31:36.863Z,997.33
2022-11-19T06:32:36.852Z,997.29
2022-11-19T06:33:57.845Z,997.32
2022-11-19T06:34:57.833Z,997.34
2022-11-19T06:35:36.812Z,997.36
2022-11-19T06:36:41.152Z,997.39
2022-11-19T06:37:36.776Z,997.37
2022-11-19T06:38:57.782Z,997.39
2022-11-19T06:39:57.775Z,997.42
2022-11-19T06:40:36.756Z,997.41
2022-11-19T06:41:36.740Z,997.40
2022-11-19T06:42:36.734Z,997.42
2022-11-19T06:43:57.717Z,997.43
2022-11-19T06:44:57.704Z,997.41
2022-11-19T06:45:36.687Z,997.48
2022-11-19T06:46:36.685Z,997.47
2022-11-19T06:47:36.659Z,997.47
2022-11-19T06:48:57.689Z,997.45
2022-11-19T06:49:57.637Z,997.46
2022-11-19T06:50:36.626Z,997.46
2022-11-19T06:51:36.619Z,997.47
2022-11-19T06:52:36.600Z,997.45
2022-11-19T06:53:57.592Z,997.45
2022-11-19T06:54:57.583Z,997.43
2022-11-19T06:55:36.558Z,997.50
2022-11-19T06:56:36.551Z,997.54
2022-11-19T06:57:36.537Z,997.52
2022-11-19T06:58:57.535Z,997.53
2022-11-19T06:59:57.509Z,997.53
2022-11-19T07:00:36.506Z,997.56
2022-11-19T07:01:36.522Z,997.56
2022-11-19T07:02:36.470Z,997.54
2022-11-19T07:03:57.461Z,997.55
2022-11-19T07:04:57.464Z,997.57
2022-11-19T07:05:36.437Z,997.57
2022-11-19T07:06:36.427Z,997.58
2022-11-19T07:07:36.438Z,997.61
2022-11-19T07:08:57.407Z,997.64
2022-11-19T07:09:57.387Z,997.60
2022-11-19T07:10:36.374Z,997.58
2022-11-19T07:11:36.354Z,997.60
2022-11-19T07:12:36.353Z,997.62
2022-11-19T07:13:57.363Z,997.63
2022-11-19T07:15:02.672Z,997.61
2022-11-19T07:15:36.317Z,997.62
2022-11-19T07:16:36.296Z,997.62
2022-11-19T07:17:36.279Z,997.64
2022-11-19T07:18:57.279Z,997.67
2022-11-19T07:19:57.263Z,997.66
2022-11-19T07:20:36.244Z,997.65
2022-11-19T07:21:36.228Z,997.68
2022-11-19T07:22:36.221Z,997.71
2022-11-19T07:23:57.206Z,997.68
2022-11-19T07:24:57.201Z,997.69
2022-11-19T07:25:36.178Z,997.72
2022-11-19T07:26:36.177Z,997.72
2022-11-19T07:27:36.147Z,997.74
2022-11-19T07:29:01.773Z,997.74
2022-11-19T07:29:57.133Z,997.69
2022-11-19T07:30:36.123Z,997.77
2022-11-19T07:31:43.272Z,997.76
2022-11-19T07:33:40.009Z,997.86
2022-11-19T07:34:39.983Z,997.85
2022-11-19T07:36:43.929Z,997.88
2022-11-19T07:37:43.902Z,997.92
2022-11-19T07:39:47.841Z,997.94
2022-11-19T07:40:47.832Z,997.98
2022-11-19T07:42:40.697Z,997.99
2022-11-19T07:43:40.673Z,998.04
2022-11-19T07:44:40.667Z,998.01
2022-11-19T07:45:40.649Z,998.06
2022-11-19T07:46:40.638Z,998.02
2022-11-19T07:47:40.624Z,998.07
2022-11-19T07:48:40.608Z,998.05
2022-11-19T07:49:40.603Z,998.10
2022-11-19T07:50:40.581Z,998.10
2022-11-19T07:51:40.577Z,998.12
2022-11-19T07:52:40.555Z,998.12
2022-11-19T07:53:40.549Z,998.12
2022-11-19T07:54:40.533Z,998.16
2022-11-19T07:55:40.521Z,998.18
2022-11-19T07:56:40.508Z,998.18
2022-11-19T07:57:40.493Z,998.18
2022-11-19T07:58:40.487Z,998.19
2022-11-19T07:59:40.474Z,998.17
2022-11-19T08:00:40.454Z,998.18
2022-11-19T08:01:40.512Z,998.20
2022-11-19T08:02:40.430Z,998.26
2022-11-19T08:03:40.421Z,998.28
2022-11-19T08:04:40.406Z,998.27
2022-11-19T08:05:40.390Z,998.27
2022-11-19T08:06:40.385Z,998.26
2022-11-19T08:07:40.415Z,998.29
2022-11-19T08:08:40.350Z,998.28
2022-11-19T08:09:40.341Z,998.28
2022-11-19T08:10:40.324Z,998.27
2022-11-19T08:11:40.317Z,998.32
2022-11-19T08:12:40.299Z,998.32
2022-11-19T08:13:40.288Z,998.31
2022-11-19T08:14:40.275Z,998.40
2022-11-19T08:15:40.265Z,998.39
2022-11-19T08:16:40.251Z,998.42
2022-11-19T08:17:40.229Z,998.40
2022-11-19T08:18:40.222Z,998.46
2022-11-19T08:19:40.213Z,998.45
2022-11-19T08:20:40.200Z,998.53
2022-11-19T08:21:40.190Z,998.61
2022-11-19T08:22:40.172Z,998.54
2022-11-19T08:23:40.164Z,998.54
2022-11-19T08:24:40.148Z,998.53
2022-11-19T08:25:40.136Z,998.59
2022-11-19T08:26:40.121Z,998.58
2022-11-19T08:27:40.112Z,998.59
2022-11-19T08:28:40.101Z,998.59
2022-11-19T08:29:40.100Z,998.66
2022-11-19T08:30:40.071Z,998.63
2022-11-19T08:31:40.065Z,998.61
2022-11-19T08:32:40.046Z,998.64
2022-11-19T08:33:40.037Z,998.67
2022-11-19T08:34:40.023Z,998.63
2022-11-19T08:35:40.027Z,998.65
2022-11-19T08:36:39.996Z,998.63
2022-11-19T08:37:39.984Z,998.65
2022-11-19T08:38:39.973Z,998.63
2022-11-19T08:39:39.962Z,998.67
2022-11-19T08:40:39.946Z,998.68
2022-11-19T08:41:39.936Z,998.63
2022-11-19T08:42:39.922Z,998.63
2022-11-19T08:43:39.912Z,998.62
2022-11-19T08:44:39.895Z,998.63
2022-11-19T08:45:39.882Z,998.61
2022-11-19T08:46:39.885Z,998.58
2022-11-19T08:47:39.860Z,998.60
2022-11-19T08:48:39.844Z,998.63
2022-11-19T08:49:39.834Z,998.65
2022-11-19T08:50:39.818Z,998.66
2022-11-19T08:51:39.809Z,998.72
2022-11-19T08:52:39.795Z,998.72
2022-11-19T08:53:39.782Z,998.70
2022-11-19T08:54:39.770Z,998.70
2022-11-19T08:55:39.757Z,998.72
2022-11-19T08:56:39.745Z,998.76
2022-11-19T08:57:39.731Z,998.73
2022-11-19T08:58:39.718Z,998.74
2022-11-19T08:59:39.697Z,998.77
2022-11-19T09:00:39.711Z,998.72
2022-11-19T09:01:39.682Z,998.73
2022-11-19T09:02:39.667Z,998.67
2022-11-19T09:03:39.661Z,998.71
2022-11-19T09:04:39.639Z,998.74
2022-11-19T09:05:39.632Z,998.80
2022-11-19T09:06:39.618Z,998.77
2022-11-19T09:07:39.686Z,998.79
2022-11-19T09:08:39.592Z,998.78
2022-11-19T09:09:39.582Z,998.82
2022-11-19T09:10:39.566Z,998.83
2022-11-19T09:11:42.600Z,998.85
2022-11-19T09:12:39.539Z,998.84
2022-11-19T09:13:39.534Z,998.89
2022-11-19T09:14:39.518Z,998.88
2022-11-19T09:15:39.503Z,998.92
2022-11-19T09:16:39.492Z,998.90
2022-11-19T09:17:45.298Z,998.91
2022-11-19T09:18:39.471Z,998.92
2022-11-19T09:19:39.455Z,998.92
2022-11-19T09:20:39.438Z,998.92
2022-11-19T09:21:39.431Z,998.95
2022-11-19T09:22:39.413Z,998.94
2022-11-19T09:23:39.413Z,998.98
2022-11-19T09:24:39.390Z,999.01
2022-11-19T09:25:39.377Z,999.05
2022-11-19T09:26:39.367Z,999.06
2022-11-19T09:27:39.352Z,999.03
2022-11-19T09:28:39.336Z,999.10
2022-11-19T09:29:39.328Z,999.07
2022-11-19T09:30:39.302Z,999.06
2022-11-19T09:31:39.303Z,999.09
2022-11-19T09:32:39.287Z,999.09
2022-11-19T09:33:39.275Z,999.10
2022-11-19T09:34:39.274Z,999.09
2022-11-19T09:35:39.249Z,999.09
2022-11-19T09:36:39.237Z,999.13
2022-11-19T09:37:39.224Z,999.15
2022-11-19T09:38:39.213Z,999.13
2022-11-19T09:39:39.202Z,999.16
2022-11-19T09:40:39.184Z,999.18
2022-11-19T09:41:39.178Z,999.22
2022-11-19T09:42:39.161Z,999.21
2022-11-19T09:43:39.146Z,999.23
2022-11-19T09:44:39.133Z,999.25
2022-11-19T09:45:39.124Z,999.26
2022-11-19T09:46:39.111Z,999.29
2022-11-19T09:47:39.102Z,999.32
2022-11-19T09:48:39.085Z,999.34
2022-11-19T09:49:39.072Z,999.36
2022-11-19T09:50:39.058Z,999.40
2022-11-19T09:51:39.051Z,999.39
2022-11-19T09:52:39.031Z,999.40
2022-11-19T09:53:39.023Z,999.40
2022-11-19T09:54:39.010Z,999.39
2022-11-19T09:55:38.997Z,999.37
2022-11-19T09:56:38.984Z,999.37
2022-11-19T09:57:38.969Z,999.42
2022-11-19T09:58:38.958Z,999.40
2022-11-19T09:59:38.949Z,999.44
2022-11-19T10:00:38.931Z,999.41
2022-11-19T10:01:38.924Z,999.41
2022-11-19T10:02:38.940Z,999.38
2022-11-19T10:03:38.899Z,999.43
2022-11-19T10:04:38.884Z,999.41
2022-11-19T10:05:38.870Z,999.48
2022-11-19T10:06:38.858Z,999.49
2022-11-19T10:07:38.881Z,999.55
2022-11-19T10:08:38.836Z,999.56
2022-11-19T10:09:38.828Z,999.57
2022-11-19T10:10:38.816Z,999.55
2022-11-19T10:11:38.798Z,999.63
2022-11-19T10:12:38.779Z,999.56
2022-11-19T10:13:38.772Z,999.61
2022-11-19T10:14:38.759Z,999.59
2022-11-19T10:15:38.746Z,999.60
2022-11-19T10:16:38.734Z,999.60
2022-11-19T10:17:38.719Z,999.59
2022-11-19T10:18:38.709Z,999.60
2022-11-19T10:19:38.755Z,999.60
2022-11-19T10:20:38.689Z,999.60
2022-11-19T10:21:38.670Z,999.56
2022-11-19T10:22:38.663Z,999.63
2022-11-19T10:23:38.648Z,999.62
2022-11-19T10:24:38.634Z,999.59
2022-11-19T10:25:38.620Z,999.55
2022-11-19T10:26:38.609Z,999.55
2022-11-19T10:27:38.595Z,999.54
2022-11-19T10:28:38.580Z,999.50
2022-11-19T10:29:38.572Z,999.49
2022-11-19T10:30:38.557Z,999.48
2022-11-19T10:31:38.551Z,999.48
2022-11-19T10:32:38.531Z,999.43
2022-11-19T10:33:38.523Z,999.45
2022-11-19T10:34:38.512Z,999.40
2022-11-19T10:35:38.499Z,999.40
2022-11-19T10:36:38.486Z,999.45
2022-11-19T10:37:38.481Z,999.46
2022-11-19T10:38:38.464Z,999.51
2022-11-19T10:39:38.451Z,999.52
2022-11-19T10:40:38.435Z,999.56
2022-11-19T10:41:38.430Z,999.53
2022-11-19T10:42:38.412Z,999.57
2022-11-19T10:43:38.400Z,999.51
2022-11-19T10:44:38.389Z,999.50
2022-11-19T10:45:38.376Z,999.45
2022-11-19T10:46:38.363Z,999.45
2022-11-19T10:47:38.354Z,999.47
2022-11-19T10:48:38.336Z,999.53
2022-11-19T10:49:38.329Z,999.51
2022-11-19T10:50:38.312Z,999.59
2022-11-19T10:51:38.305Z,999.56
2022-11-19T10:52:38.286Z,999.55
2022-11-19T10:53:38.274Z,999.54
2022-11-19T10:54:38.266Z,999.55
2022-11-19T10:55:38.252Z,999.51
2022-11-19T10:56:38.240Z,999.54
2022-11-19T10:57:38.228Z,999.56
2022-11-19T10:58:38.213Z,999.57
2022-11-19T10:59:38.205Z,999.53
2022-11-19T11:00:38.227Z,999.56
2022-11-19T11:01:38.180Z,999.61
2022-11-19T11:02:38.162Z,999.58
2022-11-19T11:03:38.151Z,999.58
2022-11-19T11:04:38.144Z,999.62
2022-11-19T11:05:38.128Z,999.60
2022-11-19T11:06:38.117Z,999.57
2022-11-19T11:07:38.130Z,999.62
2022-11-19T11:08:38.090Z,999.61
2022-11-19T11:09:38.079Z,999.58
2022-11-19T11:10:38.066Z,999.57
2022-11-19T11:11:38.060Z,999.54
2022-11-19T11:12:38.053Z,999.59
2022-11-19T11:13:38.034Z,999.60
2022-11-19T11:14:38.021Z,999.58
2022-11-19T11:15:38.002Z,999.58
2022-11-19T11:16:38.050Z,999.55
2022-11-19T11:17:37.972Z,999.51
2022-11-19T11:18:37.969Z,999.56
2022-11-19T11:19:37.957Z,999.55
2022-11-19T11:20:37.943Z,999.52
2022-11-19T11:21:37.932Z,999.53
2022-11-19T11:22:37.920Z,999.52
2022-11-19T11:23:37.904Z,999.54
2022-11-19T11:24:37.900Z,999.56
2022-11-19T11:25:37.885Z,999.54
2022-11-19T11:26:37.871Z,999.55
2022-11-19T11:27:37.854Z,999.54
2022-11-19T11:28:37.844Z,999.59
2022-11-19T11:29:37.833Z,999.62
2022-11-19T11:30:37.827Z,999.63
2022-11-19T11:31:37.807Z,999.67
2022-11-19T11:32:37.795Z,999.59
2022-11-19T11:33:37.797Z,999.60
2022-11-19T11:34:37.772Z,999.61
2022-11-19T11:35:37.758Z,999.59
2022-11-19T11:36:37.750Z,999.59
2022-11-19T11:37:37.734Z,999.54
2022-11-19T11:38:37.719Z,999.55
2022-11-19T11:39:37.711Z,999.50
2022-11-19T11:40:37.693Z,999.48
2022-11-19T11:42:07.690Z,999.43
2022-11-19T11:42:37.670Z,999.45
2022-11-19T11:43:37.655Z,999.48
2022-11-19T11:44:37.646Z,999.48
2022-11-19T11:45:37.630Z,999.49
2022-11-19T11:46:37.638Z,999.52
2022-11-19T11:47:37.608Z,999.56
2022-11-19T11:48:37.596Z,999.52
2022-11-19T11:49:37.580Z,999.53
2022-11-19T11:50:37.652Z,999.58
2022-11-19T11:51:37.559Z,999.53
2022-11-19T11:52:37.543Z,999.50
2022-11-19T11:53:37.531Z,999.53
2022-11-19T11:54:37.524Z,999.53
2022-11-19T11:55:37.506Z,999.53
2022-11-19T11:56:37.501Z,999.50
2022-11-19T11:57:37.474Z,999.50
2022-11-19T11:58:37.469Z,999.53
2022-11-19T11:59:37.458Z,999.53
2022-11-19T12:00:37.444Z,999.51
2022-11-19T12:01:37.436Z,999.49
2022-11-19T12:02:37.485Z,999.51
2022-11-19T12:03:54.167Z,999.52
2022-11-19T12:04:37.403Z,999.50
2022-11-19T12:05:37.379Z,999.51
2022-11-19T12:06:37.371Z,999.53
2022-11-19T12:07:37.412Z,999.54
2022-11-19T12:08:37.350Z,999.56
2022-11-19T12:09:37.346Z,999.55
2022-11-19T12:10:37.318Z,999.51
2022-11-19T12:11:37.307Z,999.52
2022-11-19T12:12:37.295Z,999.46
2022-11-19T12:13:37.278Z,999.48
2022-11-19T12:14:37.272Z,999.48
2022-11-19T12:15:37.254Z,999.53
2022-11-19T12:16:37.242Z,999.51
2022-11-19T12:17:37.228Z,999.47
2022-11-19T12:18:37.217Z,999.51
2022-11-19T12:19:37.207Z,999.52
2022-11-19T12:20:37.192Z,999.55
2022-11-19T12:21:37.182Z,999.58
2022-11-19T12:22:37.170Z,999.58
2022-11-19T12:23:37.153Z,999.55
2022-11-19T12:24:37.142Z,999.53
2022-11-19T12:25:37.127Z,999.53
2022-11-19T12:26:37.123Z,999.56
2022-11-19T12:27:37.105Z,999.53
2022-11-19T12:28:37.089Z,999.51
2022-11-19T12:29:37.083Z,999.53
2022-11-19T12:30:37.075Z,999.50
2022-11-19T12:31:37.052Z,999.51
2022-11-19T12:32:37.044Z,999.49
2022-11-19T12:33:37.025Z,999.51
2022-11-19T12:34:37.018Z,999.52